메인 페이지
METAR-TAF:

METAR-TAF

공항 :

퍼스, 오스트레일리아

퍼스 공항

위도: 31-56S, 경도: 115-57E, 고도: 20m

현재 날씨관측

예보는 28분 전, 07:00시(UTC)에 발표되었습니다.
10kt
온도 29°C
습도 58%
기압 1005 hPa
시정 10km 이상
고도 3500ft 상공 구름 조금

METAR: YPPH 250700Z 26010KT 9999 FEW035 29/20 Q1005 NOSIG

시각: 15:28 (07:28 UTC)

예보

예보는 2 시간 21분 전, 05:07시(UTC)에 발표되었습니다.
예보 대상 시간: 25일 06시부터 26일 12시까지 (UTC)
서남서12kt
시정 10km 이상
고도 4000ft 상공 구름 보통
고도 6000ft 상공 구름 많음
약한소나기
25일 0700시부터 (UTC)
남남서10kt
시정 10km 이상
고도 3000ft 상공 구름 보통
25일 1600시부터 (UTC)
남남서10kt
시정 10km 이상
고도 1200ft 상공 구름 많음
약한이슬비
26일 0100시부터 (UTC)
남서14kt
시정 10km 이상
고도 2500ft 상공 구름 많음
26일 0500시부터 (UTC)
남서16kt
시정 10km 이상
고도 3000ft 상공 구름 보통
고도 4000ft 상공 구름 많음

TAF: YPPH 250507Z 2506/2612 25012KT 9999 -SHRA SCT040 BKN060 FM250700 20010KT 9999 SCT030 FM251600 21010KT 9999 -DZ BKN012 FM260100 22014KT 9999 BKN025 FM260500 23016KT 9999 SCT030 BKN040

4,000개 이상의 공항 관측 자료 및 예보 (METAR 및 TAF 보고).

지도상에서 검색 가능한 기상관측소가 노란 점과 빨간 점으로 표시되어 있습니다.

기상관측소 명을 보려면 표시 위로 마우스를 이동하세요.

날씨 관측과 예보를 보려면 클릭하세요.

지도 변경 : 확대하려면 엑스 표시가 있는 녹색 버튼, 축소하려면 빼기 표시가 있는 녹색 버튼, 다음 페이지의 지도를 보려면 녹색 화살표를 클릭하세요.


METAR-TAF: